Time;durP1;ratioP1;P1;durP2;ratioP2;P2;SDS_P1;SDS_P2;PMS_P1;PMS_P2;Temp;Humidity;BMP_temperature;BMP_pressure;BME280_temperature;BME280_humidity;BME280_pressure;Samples;Min_cycle;Max_cycle;Signal;HPM_P1;HPM_P2
2023/10/27 00:00:52;;;;;;;5.37;3.00;;;11.80;1.00;;;;;;5059234;28;20268;-45
2023/10/27 00:03:18;;;;;;;2.70;2.43;;;11.70;10.80;;;;;;5076454;28;20423;-45
2023/10/27 00:05:44;;;;;;;4.93;2.53;;;11.70;17.30;;;;;;5076929;28;20182;-45
2023/10/27 00:08:10;;;;;;;4.33;2.33;;;11.70;25.90;;;;;;5076649;28;20217;-45
2023/10/27 00:10:36;;;;;;;5.00;2.77;;;11.70;34.60;;;;;;5076276;28;20181;-45
2023/10/27 00:13:02;;;;;;;3.43;2.60;;;11.60;32.00;;;;;;5059420;28;20411;-45
2023/10/27 00:15:27;;;;;;;5.10;2.60;;;11.60;32.20;;;;;;5076767;28;20667;-45
2023/10/27 00:17:56;;;;;;;3.70;2.40;;;11.60;30.40;;;;;;5076408;28;20419;-45
2023/10/27 00:20:22;;;;;;;3.27;2.00;;;11.50;40.20;;;;;;5076575;28;20224;-45
2023/10/27 00:22:48;;;;;;;3.57;2.27;;;11.50;43.90;;;;;;5076711;28;20828;-45
2023/10/27 00:25:13;;;;;;;4.40;2.90;;;11.50;50.80;;;;;;5075730;28;20626;-45
2023/10/27 00:27:39;;;;;;;7.53;2.53;;;11.50;53.30;;;;;;5076451;28;20322;-45
2023/10/27 00:30:07;;;;;;;6.60;2.20;;;11.50;62.00;;;;;;5076404;28;20505;-45
2023/10/27 00:32:33;;;;;;;4.30;2.20;;;11.40;63.60;;;;;;5075490;28;20278;-45
2023/10/27 00:34:58;;;;;;;7.03;2.03;;;11.40;77.20;;;;;;5076547;28;20415;-45
2023/10/27 00:37:24;;;;;;;3.63;2.00;;;11.40;93.70;;;;;;5076052;28;20426;-45
2023/10/27 00:39:49;;;;;;;3.20;1.80;;;11.40;95.70;;;;;;5076276;28;20260;-44
2023/10/27 00:42:15;;;;;;;2.73;1.80;;;11.40;98.80;;;;;;5075923;28;20463;-44
2023/10/27 00:44:41;;;;;;;3.30;2.17;;;11.30;99.90;;;;;;5075915;28;20563;-44
2023/10/27 00:47:08;;;;;;;3.50;2.33;;;11.30;99.90;;;;;;5076045;28;20174;-44
2023/10/27 00:49:34;;;;;;;4.23;2.13;;;11.30;99.90;;;;;;5074145;28;20492;-44
2023/10/27 00:52:00;;;;;;;6.37;2.30;;;11.30;99.90;;;;;;5076275;28;20676;-45
2023/10/27 00:54:26;;;;;;;3.57;2.30;;;11.30;99.90;;;;;;5076414;28;20427;-44
2023/10/27 00:56:52;;;;;;;3.20;2.10;;;11.30;99.90;;;;;;5075215;28;20426;-44
2023/10/27 00:59:18;;;;;;;2.70;2.30;;;11.30;99.90;;;;;;5075388;28;20810;-44
2023/10/27 01:01:44;;;;;;;3.97;1.73;;;11.30;99.90;;;;;;5075610;28;20408;-44
2023/10/27 01:04:10;;;;;;;4.60;2.30;;;11.30;99.90;;;;;;5074527;28;20502;-45
2023/10/27 01:06:36;;;;;;;2.83;2.00;;;11.30;99.90;;;;;;5075638;28;20240;-45
2023/10/27 01:09:02;;;;;;;3.50;1.87;;;11.20;99.90;;;;;;5075788;28;20208;-45
2023/10/27 01:11:28;;;;;;;5.20;2.13;;;11.30;99.90;;;;;;5075670;28;20427;-45
2023/10/27 01:13:54;;;;;;;4.13;2.20;;;11.20;99.90;;;;;;5058259;28;20403;-45
2023/10/27 01:16:21;;;;;;;2.53;2.03;;;11.20;99.90;;;;;;5074735;28;20485;-45
2023/10/27 01:18:47;;;;;;;3.70;2.23;;;11.20;99.90;;;;;;5057734;28;20860;-45
2023/10/27 01:21:13;;;;;;;2.57;1.70;;;11.20;99.90;;;;;;5058289;28;20427;-45
2023/10/27 01:23:39;;;;;;;3.23;1.70;;;11.20;99.90;;;;;;5075216;28;20856;-45
2023/10/27 01:26:05;;;;;;;3.27;2.20;;;11.20;99.90;;;;;;5076081;28;20188;-45
2023/10/27 01:28:31;;;;;;;3.93;2.50;;;11.20;99.90;;;;;;5075665;28;20281;-45
2023/10/27 01:30:57;;;;;;;4.30;2.03;;;11.20;99.90;;;;;;5075631;28;20697;-45
2023/10/27 01:33:23;;;;;;;4.10;2.07;;;11.20;99.90;;;;;;5076018;28;20434;-45
2023/10/27 01:35:53;;;;;;;4.43;2.00;;;11.20;99.90;;;;;;5075115;28;20177;-45
2023/10/27 01:38:19;;;;;;;3.27;2.00;;;11.20;99.90;;;;;;5074871;28;20419;-45
2023/10/27 01:40:45;;;;;;;2.30;1.70;;;11.20;99.90;;;;;;5075012;28;20503;-45
2023/10/27 01:43:10;;;;;;;4.90;1.90;;;11.20;99.90;;;;;;5074699;28;20619;-45
2023/10/27 01:45:36;;;;;;;2.60;1.60;;;11.20;98.80;;;;;;5075485;28;20185;-45
2023/10/27 01:48:01;;;;;;;2.53;1.43;;;11.20;96.00;;;;;;5075576;28;20299;-45
2023/10/27 01:50:27;;;;;;;4.73;2.20;;;11.20;98.60;;;;;;5074924;28;20184;-45
2023/10/27 01:52:53;;;;;;;1.70;1.43;;;11.20;99.90;;;;;;5075907;28;20195;-45
2023/10/27 01:55:18;;;;;;;3.33;2.20;;;11.20;96.20;;;;;;5075537;28;20180;-45
2023/10/27 01:57:44;;;;;;;3.00;2.03;;;11.20;93.20;;;;;;5074480;28;20189;-46
2023/10/27 02:00:10;;;;;;;3.03;1.90;;;11.20;66.40;;;;;;5057337;28;20579;-46
2023/10/27 02:02:36;;;;;;;2.30;1.77;;;11.20;60.50;;;;;;5057261;28;20431;-47
2023/10/27 02:05:05;;;;;;;4.40;2.03;;;11.20;60.70;;;;;;5074976;28;20422;-46
2023/10/27 02:07:31;;;;;;;3.23;2.77;;;11.20;72.60;;;;;;5073330;28;20184;-46
2023/10/27 02:10:00;;;;;;;3.70;2.10;;;11.20;79.30;;;;;;5074523;28;20463;-46
2023/10/27 02:12:29;;;;;;;2.80;2.00;;;11.20;89.70;;;;;;5072973;28;20419;-47
2023/10/27 02:14:55;;;;;;;3.20;1.70;;;11.10;95.50;;;;;;5060147;28;20431;-46
2023/10/27 02:23:27;;;;;;;3.30;1.47;;;11.20;50.10;;;;;;5063149;28;20931;-47
2023/10/27 02:25:54;;;;;;;2.77;1.83;;;11.10;43.10;;;;;;5059340;28;20436;-46
2023/10/27 02:28:20;;;;;;;3.23;1.40;;;11.10;50.60;;;;;;5056284;28;20289;-49
2023/10/27 02:30:46;;;;;;;4.13;1.80;;;11.10;59.60;;;;;;5056320;28;20420;-46
2023/10/27 02:33:16;;;;;;;3.73;1.40;;;11.10;59.80;;;;;;5055908;28;20588;-47
2023/10/27 02:35:41;;;;;;;3.60;2.27;;;11.10;56.30;;;;;;5054705;28;20182;-47
2023/10/27 02:38:08;;;;;;;2.20;1.40;;;11.10;50.70;;;;;;5055898;28;20435;-46
2023/10/27 02:40:36;;;;;;;3.00;2.13;;;11.10;48.20;;;;;;5056670;28;20198;-46
2023/10/27 02:43:03;;;;;;;2.50;1.67;;;11.10;49.90;;;;;;5056471;28;20432;-46
2023/10/27 02:45:29;;;;;;;6.03;1.73;;;11.10;38.90;;;;;;5057047;28;20433;-46
2023/10/27 02:47:55;;;;;;;1.60;1.10;;;11.10;30.10;;;;;;5058151;28;20498;-46
2023/10/27 02:50:21;;;;;;;3.93;1.77;;;11.10;24.00;;;;;;5056617;28;20846;-46
2023/10/27 02:52:46;;;;;;;4.90;1.77;;;11.10;24.10;;;;;;5038987;28;20260;-46
2023/10/27 02:55:12;;;;;;;4.13;1.60;;;11.10;24.60;;;;;;5056928;28;20210;-46
2023/10/27 02:57:38;;;;;;;2.80;1.60;;;11.10;26.20;;;;;;5057510;28;20568;-46
2023/10/27 03:00:07;;;;;;;3.83;1.60;;;11.10;27.20;;;;;;5057621;28;20174;-47
2023/10/27 03:02:33;;;;;;;3.57;1.60;;;11.10;21.80;;;;;;5057929;28;20184;-46
2023/10/27 03:04:59;;;;;;;3.83;2.23;;;11.10;23.40;;;;;;5057396;28;20842;-45
2023/10/27 03:07:25;;;;;;;2.57;1.70;;;11.10;28.80;;;;;;5057384;28;20416;-46
2023/10/27 03:09:51;;;;;;;3.70;1.50;;;11.10;33.80;;;;;;5057696;28;20213;-46
2023/10/27 03:12:17;;;;;;;3.20;1.80;;;11.00;25.10;;;;;;5056386;28;20431;-46
2023/10/27 03:14:43;;;;;;;2.40;1.30;;;11.00;26.70;;;;;;5056119;28;20479;-46
2023/10/27 03:17:08;;;;;;;3.77;1.40;;;11.00;29.00;;;;;;5056708;28;20408;-46
2023/10/27 03:19:34;;;;;;;2.33;1.33;;;11.00;38.20;;;;;;5055636;28;20429;-46
2023/10/27 03:22:01;;;;;;;2.30;1.30;;;11.00;54.20;;;;;;5056212;28;20197;-46
2023/10/27 03:24:26;;;;;;;2.10;1.77;;;11.00;63.60;;;;;;5055646;28;20515;-46
2023/10/27 03:26:52;;;;;;;2.27;1.57;;;10.90;69.90;;;;;;5055791;28;20428;-46
2023/10/27 03:29:18;;;;;;;4.23;1.80;;;10.90;89.10;;;;;;5056497;28;20329;-47
2023/10/27 03:31:43;;;;;;;2.67;1.40;;;10.90;90.00;;;;;;5056759;28;20188;-46
2023/10/27 03:34:09;;;;;;;2.30;1.50;;;10.90;98.30;;;;;;5057696;28;20552;-46
2023/10/27 03:36:35;;;;;;;2.13;1.70;;;10.90;95.70;;;;;;5058159;28;20212;-46
2023/10/27 03:39:00;;;;;;;2.90;1.40;;;10.90;99.90;;;;;;5057928;28;20189;-46
2023/10/27 03:41:26;;;;;;;3.40;2.07;;;10.90;99.90;;;;;;5056717;28;20200;-46
2023/10/27 03:43:52;;;;;;;3.67;1.80;;;10.90;99.90;;;;;;5056928;28;20197;-46
2023/10/27 03:46:18;;;;;;;1.90;1.60;;;10.90;99.90;;;;;;5056327;28;20228;-46
2023/10/27 03:48:44;;;;;;;2.47;1.63;;;10.90;99.90;;;;;;5057079;28;20810;-46
2023/10/27 03:51:11;;;;;;;3.93;1.90;;;10.90;99.90;;;;;;5055816;28;20263;-46
2023/10/27 03:53:36;;;;;;;5.60;1.70;;;10.90;99.90;;;;;;5056301;28;20520;-46
2023/10/27 03:56:02;;;;;;;2.63;1.47;;;10.90;99.90;;;;;;5056537;28;20795;-47
2023/10/27 03:58:29;;;;;;;4.23;1.90;;;10.90;99.90;;;;;;5054775;28;20186;-46
2023/10/27 04:00:55;;;;;;;4.80;1.50;;;10.90;99.90;;;;;;5055425;28;20181;-46
2023/10/27 04:03:21;;;;;;;2.20;1.70;;;10.90;99.90;;;;;;5055312;28;20937;-46
2023/10/27 04:05:46;;;;;;;2.50;1.80;;;10.90;99.90;;;;;;5054627;28;20197;-46
2023/10/27 04:08:12;;;;;;;2.30;1.60;;;10.90;99.90;;;;;;5056181;28;20603;-46
2023/10/27 04:10:38;;;;;;;2.10;1.50;;;10.90;99.90;;;;;;5056452;28;20186;-46
2023/10/27 04:13:04;;;;;;;2.13;1.47;;;11.00;99.90;;;;;;5056408;28;20185;-46
2023/10/27 04:15:29;;;;;;;2.20;1.37;;;10.90;99.90;;;;;;5055072;28;20268;-46
2023/10/27 04:17:55;;;;;;;3.90;1.30;;;10.90;96.20;;;;;;5056546;28;20519;-46
2023/10/27 04:20:21;;;;;;;1.77;1.20;;;10.90;88.50;;;;;;5056214;28;20657;-46
2023/10/27 04:22:47;;;;;;;3.00;1.33;;;11.00;60.80;;;;;;5056394;28;20218;-46
2023/10/27 04:25:12;;;;;;;3.13;1.60;;;10.90;44.60;;;;;;5056380;28;20208;-46
2023/10/27 04:27:38;;;;;;;1.60;1.10;;;11.00;29.40;;;;;;5057578;28;20208;-46
2023/10/27 04:30:07;;;;;;;2.60;1.33;;;10.90;21.70;;;;;;5054939;28;20210;-45
2023/10/27 04:32:38;;;;;;;3.80;1.20;;;10.90;17.70;;;;;;5052162;28;20525;-46
2023/10/27 04:35:04;;;;;;;2.80;1.90;;;10.90;11.50;;;;;;5053445;28;20412;-48
2023/10/27 04:37:33;;;;;;;4.43;1.60;;;10.90;12.40;;;;;;5036256;28;20598;-45
2023/10/27 04:39:59;;;;;;;1.40;1.10;;;10.90;9.00;;;;;;5051533;28;20417;-46
2023/10/27 04:42:25;;;;;;;1.77;1.20;;;10.90;2.10;;;;;;5050987;28;20428;-46
2023/10/27 04:44:51;;;;;;;4.87;1.30;;;10.90;1.00;;;;;;5052344;28;20424;-49
2023/10/27 04:47:17;;;;;;;1.93;1.20;;;10.90;1.00;;;;;;5053202;28;20717;-46
2023/10/27 04:49:42;;;;;;;1.77;1.20;;;10.90;1.00;;;;;;5053712;28;20279;-46
2023/10/27 04:52:08;;;;;;;2.40;1.27;;;10.90;3.50;;;;;;5052582;28;20177;-46
2023/10/27 04:54:34;;;;;;;1.87;1.03;;;10.90;11.90;;;;;;5052802;28;20580;-46
2023/10/27 04:57:03;;;;;;;3.00;1.90;;;10.90;16.90;;;;;;5035745;28;20200;-46
2023/10/27 04:59:29;;;;;;;2.90;1.40;;;10.90;17.10;;;;;;5050688;28;20429;-46
2023/10/27 05:01:55;;;;;;;1.70;1.43;;;10.80;22.80;;;;;;5054142;28;20420;-46
2023/10/27 05:04:21;;;;;;;3.03;1.13;;;10.80;28.40;;;;;;5054428;28;20443;-46
2023/10/27 05:06:47;;;;;;;2.93;1.60;;;10.80;18.20;;;;;;5054166;28;20182;-45
2023/10/27 05:09:13;;;;;;;2.27;1.53;;;10.80;22.30;;;;;;5055747;28;20368;-46
2023/10/27 05:11:41;;;;;;;2.90;1.47;;;10.80;36.80;;;;;;5053488;28;20190;-46
2023/10/27 05:14:07;;;;;;;2.47;1.47;;;10.80;56.20;;;;;;5050441;28;20516;-47
2023/10/27 05:16:33;;;;;;;1.90;1.30;;;10.80;83.80;;;;;;5049828;28;20532;-46
2023/10/27 05:18:59;;;;;;;2.40;1.60;;;10.80;99.30;;;;;;5049622;28;20348;-46
2023/10/27 05:21:26;;;;;;;1.63;1.10;;;10.80;99.90;;;;;;5047113;28;20468;-46
2023/10/27 05:23:59;;;;;;;3.57;1.60;;;10.80;99.90;;;;;;5048329;28;20777;-46
2023/10/27 05:26:25;;;;;;;1.63;1.23;;;10.70;99.90;;;;;;5040316;28;20698;-46
2023/10/27 05:28:51;;;;;;;2.07;1.47;;;10.70;99.90;;;;;;5048415;28;20468;-46
2023/10/27 05:31:17;;;;;;;1.90;1.20;;;10.70;99.90;;;;;;5046741;28;20691;-46
2023/10/27 05:33:43;;;;;;;1.80;1.20;;;10.70;99.90;;;;;;5047244;28;20408;-46
2023/10/27 05:36:09;;;;;;;1.17;1.00;;;10.70;99.90;;;;;;5048556;28;20427;-46
2023/10/27 05:38:35;;;;;;;2.10;1.00;;;10.70;99.90;;;;;;5047779;28;20186;-46
2023/10/27 05:41:00;;;;;;;2.50;1.43;;;10.70;99.90;;;;;;5049728;28;20591;-46
2023/10/27 05:43:26;;;;;;;1.90;1.20;;;10.70;99.90;;;;;;5049053;28;20225;-46
2023/10/27 05:45:52;;;;;;;2.07;1.30;;;10.70;99.90;;;;;;5047879;28;20178;-46
2023/10/27 05:48:18;;;;;;;2.13;1.40;;;10.70;99.90;;;;;;5048495;28;20460;-46
2023/10/27 05:50:44;;;;;;;2.33;1.30;;;10.70;99.90;;;;;;5053806;28;20424;-46
2023/10/27 05:53:09;;;;;;;1.70;1.13;;;10.70;99.90;;;;;;5052842;28;20190;-46
2023/10/27 05:55:35;;;;;;;2.33;1.30;;;10.70;99.90;;;;;;5054619;28;20182;-46
2023/10/27 05:58:01;;;;;;;2.20;1.20;;;10.70;99.90;;;;;;5054747;28;20312;-46
2023/10/27 06:00:27;;;;;;;1.73;1.33;;;10.70;99.90;;;;;;5055146;28;20197;-46
2023/10/27 06:02:53;;;;;;;2.17;0.97;;;10.60;99.90;;;;;;5056242;28;20183;-46
2023/10/27 06:05:20;;;;;;;3.00;1.70;;;10.70;99.90;;;;;;5055763;28;20864;-47
2023/10/27 06:07:47;;;;;;;4.30;2.00;;;10.70;99.90;;;;;;5056825;28;20189;-46
2023/10/27 06:10:14;;;;;;;1.93;1.50;;;10.60;99.90;;;;;;5056220;28;20416;-46
2023/10/27 06:12:40;;;;;;;2.70;1.37;;;10.70;99.90;;;;;;5056693;28;20671;-46
2023/10/27 06:15:06;;;;;;;1.57;1.27;;;10.70;99.90;;;;;;5057089;28;20416;-46
2023/10/27 06:17:35;;;;;;;1.47;1.07;;;10.70;99.90;;;;;;5056274;28;20182;-46
2023/10/27 06:20:02;;;;;;;1.83;1.00;;;10.80;99.90;;;;;;5058418;28;20426;-46
2023/10/27 06:22:29;;;;;;;1.93;1.37;;;10.80;99.90;;;;;;5055615;28;20608;-51
2023/10/27 06:24:54;;;;;;;1.73;1.30;;;10.80;99.90;;;;;;5055441;28;20826;-46
2023/10/27 06:27:20;;;;;;;1.60;1.30;;;10.80;99.90;;;;;;5037182;28;20475;-46
2023/10/27 06:29:46;;;;;;;4.03;1.93;;;10.80;99.90;;;;;;5054928;28;20225;-47
2023/10/27 06:32:11;;;;;;;3.67;1.30;;;10.90;99.90;;;;;;5056810;28;20178;-47
2023/10/27 06:34:37;;;;;;;1.40;0.90;;;10.90;99.90;;;;;;5057295;28;20273;-39
2023/10/27 06:37:03;;;;;;;1.70;1.20;;;10.90;99.90;;;;;;5058702;28;20185;-39
2023/10/27 06:39:29;;;;;;;1.53;1.10;;;10.90;99.90;;;;;;5058984;28;20417;-41
2023/10/27 06:41:55;;;;;;;1.50;1.00;;;10.90;99.90;;;;;;5041493;28;20611;-38
2023/10/27 06:44:20;;;;;;;1.87;1.17;;;10.90;99.90;;;;;;5038814;28;20194;-41
2023/10/27 06:46:46;;;;;;;1.97;1.00;;;10.90;99.90;;;;;;5056587;28;20189;-39
2023/10/27 06:49:13;;;;;;;1.50;1.00;;;10.90;99.90;;;;;;5055701;28;20205;-42
2023/10/27 06:51:38;;;;;;;1.93;1.17;;;11.00;99.90;;;;;;5056426;28;20170;-40
2023/10/27 06:54:04;;;;;;;1.23;0.80;;;11.10;99.90;;;;;;5058540;28;20440;-39
2023/10/27 06:56:30;;;;;;;1.90;0.83;;;11.20;99.90;;;;;;5058363;28;20202;-39
2023/10/27 06:58:57;;;;;;;2.30;0.97;;;11.20;99.90;;;;;;5057384;28;20561;-38
2023/10/27 07:01:22;;;;;;;1.73;1.13;;;11.20;99.90;;;;;;5056327;28;20204;-40
2023/10/27 07:03:48;;;;;;;1.30;0.60;;;11.30;99.90;;;;;;5058150;28;20835;-41
2023/10/27 07:06:14;;;;;;;1.20;0.80;;;11.30;99.90;;;;;;5057376;28;20193;-38
2023/10/27 07:08:39;;;;;;;1.67;0.87;;;11.40;92.20;;;;;;5055784;28;20309;-37
2023/10/27 07:11:05;;;;;;;1.10;0.63;;;11.40;52.50;;;;;;5037426;28;20193;-40
2023/10/27 07:13:31;;;;;;;7.87;1.80;;;11.40;34.40;;;;;;5056540;28;20559;-44
2023/10/27 07:15:56;;;;;;;11.13;1.97;;;12.30;1.00;;;;;;5038925;28;20475;-40
2023/10/27 07:18:22;;;;;;;5.43;1.30;;;13.60;1.00;;;;;;5056624;28;20197;-39
2023/10/27 07:20:48;;;;;;;9.50;1.83;;;14.60;1.00;;;;;;5037851;28;20559;-38
2023/10/27 07:23:16;;;;;;;3.77;0.93;;;15.30;1.00;;;;;;5055104;28;20501;-41
2023/10/27 07:25:42;;;;;;;2.40;0.97;;;16.00;99.90;;;;;;5055607;28;20194;-42
2023/10/27 07:28:08;;;;;;;1.70;1.00;;;16.20;1.00;;;;;;5054475;28;20520;-40
2023/10/27 07:30:34;;;;;;;4.80;1.10;;;16.80;99.90;;;;;;5037537;28;20427;-38
2023/10/27 07:33:00;;;;;;;3.50;0.50;;;16.90;1.00;;;;;;5056983;28;20810;-38
2023/10/27 07:35:26;;;;;;;1.00;0.60;;;16.40;99.90;;;;;;5057531;28;20420;-39
2023/10/27 07:37:52;;;;;;;0.90;0.50;;;15.80;1.00;;;;;;5056989;28;20431;-39
2023/10/27 07:40:19;;;;;;;1.73;0.60;;;15.20;1.00;;;;;;5056166;28;20517;-38
2023/10/27 07:42:44;;;;;;;1.20;0.50;;;14.70;8.20;;;;;;5057713;28;20409;-38
2023/10/27 07:45:10;;;;;;;2.00;0.80;;;14.30;1.00;;;;;;5037633;28;20505;-42
2023/10/27 07:47:36;;;;;;;1.20;0.57;;;13.90;99.90;;;;;;5055349;28;20193;-39
2023/10/27 07:50:05;;;;;;;1.00;0.60;;;13.70;1.00;;;;;;5057045;28;20468;-38
2023/10/27 07:52:32;;;;;;;1.40;0.60;;;13.40;1.00;;;;;;5040104;28;20192;-37
2023/10/27 07:54:58;;;;;;;2.27;0.80;;;13.30;99.90;;;;;;5055709;28;20451;-40
2023/10/27 07:57:24;;;;;;;1.17;0.70;;;13.20;99.90;;;;;;5038355;28;20463;-39
2023/10/27 07:59:50;;;;;;;1.20;0.50;;;13.00;99.90;;;;;;5055943;28;20920;-38
2023/10/27 08:02:15;;;;;;;1.10;0.47;;;12.90;1.00;;;;;;5056321;28;20190;-41
2023/10/27 08:04:41;;;;;;;0.80;0.40;;;12.90;1.00;;;;;;5055613;28;20217;-38
2023/10/27 08:07:07;;;;;;;0.90;0.60;;;12.90;1.00;;;;;;5054039;28;20216;-39
2023/10/27 08:09:32;;;;;;;1.00;0.50;;;12.80;1.00;;;;;;5037833;28;20282;-38
2023/10/27 08:11:58;;;;;;;1.10;0.50;;;12.80;1.00;;;;;;5053169;28;20209;-39
2023/10/27 08:14:24;;;;;;;1.00;0.50;;;12.90;1.00;;;;;;5035341;28;20265;-38
2023/10/27 08:16:50;;;;;;;1.13;0.40;;;12.90;1.00;;;;;;5037064;28;20243;-39
2023/10/27 08:19:16;;;;;;;2.60;0.70;;;13.00;1.00;;;;;;5054528;28;20421;-38
2023/10/27 08:21:41;;;;;;;2.00;0.90;;;12.90;1.00;;;;;;5055055;28;20552;-38
2023/10/27 08:24:08;;;;;;;1.50;0.70;;;12.90;1.00;;;;;;5042308;28;20217;-39
2023/10/27 08:26:33;;;;;;;1.03;0.50;;;12.90;1.00;;;;;;5058261;28;20436;-38
2023/10/27 08:28:59;;;;;;;1.80;0.70;;;12.90;1.00;;;;;;5036808;28;20475;-39
2023/10/27 08:31:25;;;;;;;1.20;0.70;;;12.90;1.00;;;;;;5053090;28;20186;-40
2023/10/27 08:33:51;;;;;;;2.40;1.20;;;12.80;1.00;;;;;;5056342;28;20423;-40
2023/10/27 08:36:16;;;;;;;1.30;0.80;;;12.70;1.00;;;;;;5037309;28;20208;-39
2023/10/27 08:38:42;;;;;;;1.20;0.70;;;12.70;1.00;;;;;;5055058;28;20583;-40
2023/10/27 08:41:08;;;;;;;0.90;0.50;;;12.60;1.10;;;;;;5021404;28;20213;-41
2023/10/27 08:43:34;;;;;;;0.90;0.50;;;12.50;40.50;;;;;;5054219;28;20189;-39
2023/10/27 08:46:05;;;;;;;0.90;0.40;;;12.40;99.90;;;;;;5037787;28;20499;-39
2023/10/27 08:48:32;;;;;;;1.00;0.40;;;12.40;99.90;;;;;;5036045;28;20901;-38
2023/10/27 08:51:04;;;;;;;1.57;0.53;;;12.30;99.90;;;;;;5053829;28;20459;-38
2023/10/27 08:53:30;;;;;;;1.43;0.60;;;12.30;99.90;;;;;;5054269;28;20501;-41
2023/10/27 08:55:58;;;;;;;1.37;0.70;;;12.30;99.90;;;;;;5054535;28;20431;-39
2023/10/27 08:58:23;;;;;;;1.60;0.63;;;12.40;99.90;;;;;;5029680;28;20432;-39
2023/10/27 09:00:49;;;;;;;1.70;0.70;;;12.40;99.90;;;;;;5054666;28;20435;-38
2023/10/27 09:03:18;;;;;;;0.80;0.47;;;12.40;99.90;;;;;;5054894;28;20220;-40
2023/10/27 09:05:44;;;;;;;1.10;0.60;;;12.40;99.90;;;;;;5054607;28;20281;-39
2023/10/27 09:08:10;;;;;;;2.27;0.70;;;12.40;1.00;;;;;;5034153;28;20428;-40
2023/10/27 09:10:37;;;;;;;1.67;0.70;;;12.40;1.00;;;;;;5033754;28;20470;-39
2023/10/27 09:13:04;;;;;;;1.40;0.60;;;12.50;1.00;;;;;;5034937;28;20417;-39
2023/10/27 09:15:45;;;;;;;1.57;0.83;;;12.50;1.00;;;;;;5052436;28;20439;-38
2023/10/27 09:18:12;;;;;;;1.20;0.60;;;12.60;1.00;;;;;;5052279;28;20424;-41
2023/10/27 09:20:51;;;;;;;2.40;0.80;;;12.70;1.00;;;;;;5053685;28;20860;-39
2023/10/27 09:23:17;;;;;;;1.00;0.60;;;12.80;1.00;;;;;;5035497;28;20782;-39
2023/10/27 09:25:44;;;;;;;1.10;0.47;;;13.00;99.90;;;;;;5036875;28;20432;-39
2023/10/27 09:28:11;;;;;;;1.50;0.60;;;13.20;99.90;;;;;;5052080;28;20419;-41
2023/10/27 09:30:38;;;;;;;1.03;0.60;;;13.40;1.00;;;;;;5054435;28;20428;-39
2023/10/27 09:33:18;;;;;;;1.13;0.53;;;13.50;1.00;;;;;;5054089;28;20424;-38
2023/10/27 09:35:48;;;;;;;1.03;0.60;;;13.60;1.00;;;;;;5053244;28;20497;-39
2023/10/27 09:38:14;;;;;;;1.77;0.83;;;13.60;1.00;;;;;;5051861;28;20435;-39
2023/10/27 09:40:42;;;;;;;1.50;0.60;;;13.80;1.00;;;;;;5054439;28;20443;-40
2023/10/27 09:43:14;;;;;;;1.40;0.60;;;14.00;99.90;;;;;;5051917;28;20420;-38
2023/10/27 09:45:53;;;;;;;1.30;0.77;;;14.20;23.10;;;;;;5054119;28;20490;-40
2023/10/27 09:48:24;;;;;;;5.83;1.13;;;14.40;1.00;;;;;;5035161;28;20471;-38
2023/10/27 09:51:01;;;;;;;3.03;0.90;;;14.50;99.90;;;;;;5036234;28;20425;-38
2023/10/27 09:53:28;;;;;;;2.33;0.70;;;14.80;1.00;;;;;;5055138;28;20790;-43
2023/10/27 09:55:56;;;;;;;3.30;0.90;;;15.10;58.60;;;;;;5052627;28;20834;-39
2023/10/27 09:58:23;;;;;;;3.33;0.83;;;15.90;1.00;;;;;;5035116;28;20703;-40
2023/10/27 10:00:49;;;;;;;2.47;0.60;;;16.90;99.90;;;;;;5036820;28;20757;-41
2023/10/27 10:03:15;;;;;;;1.33;0.73;;;17.20;1.00;;;;;;5052487;28;20605;-38
2023/10/27 10:06:06;;;;;;;1.83;0.90;;;17.30;1.00;;;;;;5036631;28;20442;-42
2023/10/27 10:08:33;;;;;;;2.17;0.95;;;17.10;1.00;;;;;;5051500;28;20448;-39
2023/10/27 10:11:21;;;;;;;4.20;0.90;;;17.10;1.00;;;;;;5052295;28;20480;-39
2023/10/27 10:13:48;;;;;;;1.53;0.60;;;17.50;1.00;;;;;;5051051;28;20431;-37
2023/10/27 10:16:15;;;;;;;2.73;1.17;;;18.10;99.90;;;;;;5054218;28;20412;-38
2023/10/27 10:18:51;;;;;;;4.03;1.30;;;19.10;99.90;;;;;;5035664;28;20428;-39
2023/10/27 10:21:38;;;;;;;2.20;0.70;;;20.10;99.90;;;;;;5052041;28;20447;-41
2023/10/27 10:24:05;;;;;;;2.60;1.10;;;21.30;1.00;;;;;;5036820;28;20921;-38
2023/10/27 10:27:02;;;;;;;2.53;1.17;;;22.50;1.00;;;;;;5032250;28;20526;-39
2023/10/27 10:29:28;;;;;;;3.73;1.27;;;23.70;1.00;;;;;;5031982;28;20499;-36
2023/10/27 10:32:30;;;;;;;1.63;0.93;;;24.80;1.00;;;;;;5031474;28;20425;-38
2023/10/27 10:35:21;;;;;;;5.40;1.30;;;26.20;1.00;;;;;;5030452;28;20444;-37
2023/10/27 10:37:48;;;;;;;2.13;1.00;;;27.60;1.00;;;;;;5018147;28;20429;-37
2023/10/27 10:40:18;;;;;;;3.40;1.57;;;27.70;1.00;;;;;;5019355;28;20430;-36
2023/10/27 10:43:23;;;;;;;5.23;1.27;;;27.50;1.00;;;;;;5034547;28;20425;-36
2023/10/27 10:45:56;;;;;;;2.67;1.17;;;28.60;1.00;;;;;;5036633;28;20421;-37
2023/10/27 10:48:27;;;;;;;2.30;1.13;;;29.60;1.00;;;;;;5035222;28;20482;-37
2023/10/27 10:50:55;;;;;;;2.53;1.10;;;29.50;1.00;;;;;;5035265;28;20863;-37
2023/10/27 10:53:24;;;;;;;1.63;0.90;;;30.90;1.00;;;;;;5033835;28;20444;-38
2023/10/27 10:55:50;;;;;;;3.23;1.20;;;31.50;1.00;;;;;;5033435;28;20414;-37
2023/10/27 10:58:29;;;;;;;2.33;1.00;;;32.10;1.00;;;;;;5018789;28;20436;-36
2023/10/27 11:00:56;;;;;;;1.87;1.07;;;32.90;1.00;;;;;;5034870;28;20410;-37
2023/10/27 11:03:25;;;;;;;4.87;1.20;;;33.90;1.00;;;;;;5035792;28;20461;-42
2023/10/27 11:05:54;;;;;;;1.70;1.10;;;34.60;1.00;;;;;;5035743;28;20791;-40
2023/10/27 11:08:40;;;;;;;1.83;0.80;;;35.20;1.00;;;;;;5017274;28;20902;-41
2023/10/27 11:11:05;;;;;;;3.77;1.23;;;36.00;1.00;;;;;;5032576;28;20405;-38
2023/10/27 11:13:33;;;;;;;2.00;1.00;;;36.30;1.00;;;;;;5015971;28;20417;-42
2023/10/27 11:16:00;;;;;;;2.40;1.10;;;36.60;1.00;;;;;;5032542;28;20183;-38
2023/10/27 11:18:31;;;;;;;1.70;0.90;;;36.80;1.00;;;;;;5015628;28;20399;-40
2023/10/27 11:20:57;;;;;;;2.53;1.17;;;37.10;1.00;;;;;;5033003;28;20433;-40
2023/10/27 11:23:30;;;;;;;1.80;0.90;;;37.40;1.00;;;;;;5035244;28;20477;-40
2023/10/27 11:26:06;;;;;;;1.70;1.20;;;37.70;1.00;;;;;;5015494;28;20460;-37
2023/10/27 11:28:37;;;;;;;1.50;1.00;;;37.70;1.00;;;;;;5031339;28;20413;-40
2023/10/27 11:31:11;;;;;;;2.10;1.13;;;37.90;1.00;;;;;;5011224;28;20630;-38
2023/10/27 11:34:03;;;;;;;2.70;1.20;;;37.80;1.00;;;;;;5025296;28;20416;-39
2023/10/27 11:36:38;;;;;;;2.27;0.87;;;37.90;1.00;;;;;;5028495;28;20417;-43
2023/10/27 11:39:33;;;;;;;4.30;1.80;;;38.00;1.00;;;;;;5027992;28;20491;-42
2023/10/27 11:42:03;;;;;;;2.87;1.10;;;36.90;1.00;;;;;;5028296;28;20440;-45
2023/10/27 11:44:35;;;;;;;3.00;1.07;;;35.00;1.00;;;;;;5032022;28;20421;-38
2023/10/27 11:47:01;;;;;;;2.10;1.13;;;32.50;1.00;;;;;;4997818;28;20761;-39
2023/10/27 11:49:27;;;;;;;2.90;1.60;;;30.70;1.00;;;;;;5032627;28;20392;-38
2023/10/27 11:51:55;;;;;;;3.27;1.47;;;29.20;1.00;;;;;;5030917;28;20179;-41
2023/10/27 11:54:22;;;;;;;3.00;1.40;;;28.00;1.00;;;;;;5032705;28;20419;-39
2023/10/27 11:56:50;;;;;;;1.97;1.00;;;27.10;1.00;;;;;;5032525;28;20429;-43
2023/10/27 11:59:20;;;;;;;1.47;0.87;;;27.10;1.00;;;;;;5014242;28;20450;-37
2023/10/27 12:01:46;;;;;;;1.63;0.83;;;27.60;1.00;;;;;;5029488;28;20652;-40
2023/10/27 12:04:12;;;;;;;2.47;1.00;;;27.80;1.00;;;;;;5031224;28;20399;-37
2023/10/27 12:06:38;;;;;;;2.50;1.17;;;28.30;1.00;;;;;;5033213;28;20501;-41
2023/10/27 12:09:04;;;;;;;3.97;1.00;;;28.20;1.00;;;;;;5034086;28;20510;-39
2023/10/27 12:11:30;;;;;;;2.30;0.80;;;27.50;1.00;;;;;;5033185;28;20580;-37
2023/10/27 12:13:56;;;;;;;2.23;1.27;;;26.70;1.00;;;;;;5033324;28;20448;-39
2023/10/27 12:16:27;;;;;;;2.13;1.00;;;25.60;1.00;;;;;;5032900;28;20843;-39
2023/10/27 12:18:55;;;;;;;1.80;0.90;;;24.90;1.00;;;;;;5033639;28;20488;-39
2023/10/27 12:21:25;;;;;;;1.70;0.73;;;25.40;1.00;;;;;;5034764;28;20417;-38
2023/10/27 12:23:52;;;;;;;3.00;1.30;;;25.40;1.00;;;;;;5045212;28;20728;-38
2023/10/27 12:26:18;;;;;;;1.70;0.80;;;24.80;1.00;;;;;;5051995;28;20408;-42
2023/10/27 12:28:44;;;;;;;2.60;0.97;;;24.30;1.00;;;;;;5035295;28;20478;-39
2023/10/27 12:31:10;;;;;;;3.63;1.37;;;23.70;1.00;;;;;;5035181;28;20443;-37
2023/10/27 12:33:36;;;;;;;2.17;1.30;;;23.10;1.00;;;;;;5054331;28;20221;-41
2023/10/27 12:36:09;;;;;;;3.17;1.50;;;22.50;1.00;;;;;;5054388;28;20576;-38
2023/10/27 12:38:35;;;;;;;3.37;1.10;;;21.80;1.00;;;;;;5054084;28;20627;-38
2023/10/27 12:41:01;;;;;;;1.93;1.03;;;21.30;1.00;;;;;;5036080;28;20413;-37
2023/10/27 12:43:28;;;;;;;1.87;0.80;;;21.00;1.00;;;;;;5053872;28;20485;-37
2023/10/27 12:45:55;;;;;;;3.03;1.50;;;21.20;1.00;;;;;;5054118;28;20190;-37
2023/10/27 12:48:20;;;;;;;2.87;0.80;;;21.20;1.00;;;;;;5053618;28;20455;-38
2023/10/27 12:50:47;;;;;;;1.93;0.90;;;21.10;1.00;;;;;;5055053;28;20554;-38
2023/10/27 12:53:13;;;;;;;2.67;1.00;;;20.80;1.00;;;;;;5019355;28;20177;-45
2023/10/27 12:55:38;;;;;;;4.33;1.07;;;20.50;1.00;;;;;;5052260;28;20477;-45
2023/10/27 12:58:08;;;;;;;1.77;0.80;;;20.70;1.00;;;;;;5053522;28;20269;-45